Time;durP1;ratioP1;P1;durP2;ratioP2;P2;SDS_P1;SDS_P2;PMS_P1;PMS_P2;Temp;Humidity;BMP_temperature;BMP_pressure;BME280_temperature;BME280_humidity;BME280_pressure;Samples;Min_cycle;Max_cycle;Signal;HPM_P1;HPM_P2
2023/05/26 00:01:22;;;;;;;9.60;7.07;;;12.60;99.90;;;;;;5129991;27;20207;-65
2023/05/26 00:03:51;;;;;;;10.57;7.07;;;12.50;99.90;;;;;;5130065;27;20181;-66
2023/05/26 00:06:20;;;;;;;10.37;7.50;;;12.40;99.90;;;;;;5129971;27;20180;-66
2023/05/26 00:08:47;;;;;;;11.30;7.50;;;12.30;99.90;;;;;;5130049;27;20425;-66
2023/05/26 00:11:13;;;;;;;11.13;7.07;;;12.40;99.90;;;;;;5130076;27;20772;-66
2023/05/26 00:13:38;;;;;;;10.53;7.13;;;12.30;99.90;;;;;;5130232;27;20429;-66
2023/05/26 00:16:04;;;;;;;10.53;6.70;;;12.30;99.90;;;;;;5128863;27;20196;-66
2023/05/26 00:18:31;;;;;;;16.03;7.50;;;12.30;99.90;;;;;;5129876;27;20195;-66
2023/05/26 00:20:58;;;;;;;11.80;6.90;;;12.20;99.90;;;;;;5129788;27;20218;-66
2023/05/26 00:23:23;;;;;;;17.83;7.37;;;12.00;99.90;;;;;;5129903;27;20886;-66
2023/05/26 00:25:50;;;;;;;10.57;6.83;;;12.10;99.90;;;;;;5129778;27;20517;-66
2023/05/26 00:28:16;;;;;;;9.30;7.07;;;12.10;99.90;;;;;;5129661;27;20695;-66
2023/05/26 00:30:41;;;;;;;15.40;7.47;;;12.10;99.90;;;;;;5110952;27;20422;-66
2023/05/26 00:33:07;;;;;;;15.63;7.60;;;12.10;99.90;;;;;;5129608;27;20437;-66
2023/05/26 00:35:32;;;;;;;14.93;7.67;;;12.10;99.90;;;;;;5111096;27;20196;-66
2023/05/26 00:37:58;;;;;;;17.13;8.57;;;12.10;99.90;;;;;;5129572;27;20204;-65
2023/05/26 00:40:24;;;;;;;15.87;8.00;;;12.20;99.90;;;;;;5129238;27;20664;-66
2023/05/26 00:42:49;;;;;;;11.63;7.00;;;12.20;99.90;;;;;;5129413;27;20196;-65
2023/05/26 00:45:15;;;;;;;12.00;7.20;;;12.20;99.90;;;;;;5129449;27;20186;-65
2023/05/26 00:47:41;;;;;;;17.53;7.80;;;12.30;99.90;;;;;;5129382;27;20197;-66
2023/05/26 00:50:08;;;;;;;10.70;7.03;;;12.30;99.90;;;;;;5129425;27;20668;-66
2023/05/26 00:52:34;;;;;;;14.33;6.70;;;12.30;99.90;;;;;;5129302;27;20535;-66
2023/05/26 00:55:01;;;;;;;9.87;7.00;;;12.30;99.90;;;;;;5129278;27;20426;-66
2023/05/26 00:57:28;;;;;;;12.67;7.87;;;12.40;99.90;;;;;;5110900;27;20584;-66
2023/05/26 00:59:55;;;;;;;9.80;7.37;;;12.30;99.90;;;;;;5129136;27;20457;-66
2023/05/26 01:02:22;;;;;;;12.83;7.17;;;12.40;99.90;;;;;;5129371;27;20425;-66
2023/05/26 01:04:52;;;;;;;13.83;7.07;;;12.40;99.90;;;;;;5129229;27;20514;-66
2023/05/26 01:07:21;;;;;;;11.80;7.90;;;12.40;99.90;;;;;;5129101;27;20444;-65
2023/05/26 01:09:48;;;;;;;12.37;7.80;;;12.40;99.90;;;;;;5129236;27;20515;-66
2023/05/26 01:12:36;;;;;;;15.17;6.60;;;12.40;99.90;;;;;;5129222;28;20421;-66
2023/05/26 01:15:15;;;;;;;16.17;8.17;;;12.40;99.90;;;;;;5128672;28;20438;-66
2023/05/26 01:17:55;;;;;;;10.77;6.93;;;12.30;99.90;;;;;;5129016;27;20428;-66
2023/05/26 01:20:24;;;;;;;8.77;6.80;;;12.40;99.90;;;;;;5129008;28;20821;-65
2023/05/26 01:23:28;;;;;;;13.67;6.97;;;12.40;99.90;;;;;;5129065;27;20426;-66
2023/05/26 01:26:11;;;;;;;9.17;7.30;;;12.40;99.90;;;;;;5110938;27;20810;-66
2023/05/26 01:28:40;;;;;;;12.43;7.47;;;12.50;99.90;;;;;;5133243;27;21373;-66
2023/05/26 01:31:07;;;;;;;11.87;7.10;;;12.40;99.90;;;;;;5133138;27;20425;-66
2023/05/26 01:33:33;;;;;;;11.93;8.00;;;12.40;99.90;;;;;;5133120;27;20421;-66
2023/05/26 01:35:59;;;;;;;11.70;7.47;;;12.40;99.90;;;;;;5133023;27;20422;-66
2023/05/26 01:38:24;;;;;;;10.53;6.47;;;12.30;99.90;;;;;;5132911;27;20502;-66
2023/05/26 01:41:00;;;;;;;9.70;7.17;;;12.40;99.90;;;;;;5132905;27;20261;-66
2023/05/26 01:43:36;;;;;;;10.07;7.27;;;12.30;99.90;;;;;;5132880;27;20579;-66
2023/05/26 01:46:15;;;;;;;10.70;7.63;;;12.30;99.90;;;;;;5133381;27;20390;-66
2023/05/26 01:48:44;;;;;;;13.27;8.00;;;12.30;99.90;;;;;;5132848;27;20509;-65
2023/05/26 01:51:13;;;;;;;14.07;8.40;;;12.30;99.90;;;;;;5132731;27;20418;-66
2023/05/26 01:53:42;;;;;;;9.20;7.20;;;12.30;99.90;;;;;;5132654;27;20517;-66
2023/05/26 01:56:09;;;;;;;17.03;7.50;;;12.30;99.90;;;;;;5132664;27;20534;-66
2023/05/26 01:58:36;;;;;;;16.47;7.63;;;12.20;99.90;;;;;;5132622;27;20414;-66
2023/05/26 02:01:03;;;;;;;12.57;8.47;;;12.20;99.90;;;;;;5132707;27;20469;-66
2023/05/26 02:03:29;;;;;;;13.83;8.00;;;12.20;99.90;;;;;;5132707;27;20443;-65
2023/05/26 02:05:55;;;;;;;16.60;7.63;;;12.10;99.90;;;;;;5133457;27;20425;-66
2023/05/26 02:08:22;;;;;;;10.87;7.77;;;12.20;99.90;;;;;;5132899;27;20194;-66
2023/05/26 02:10:48;;;;;;;18.87;7.30;;;12.10;99.90;;;;;;5113889;27;20695;-65
2023/05/26 02:13:13;;;;;;;12.13;6.73;;;12.10;99.90;;;;;;5132649;27;20430;-66
2023/05/26 02:15:39;;;;;;;13.20;8.03;;;12.10;99.90;;;;;;5132535;27;20193;-65
2023/05/26 02:18:04;;;;;;;15.50;7.87;;;12.10;99.90;;;;;;5113891;27;20756;-66
2023/05/26 02:20:30;;;;;;;11.00;9.10;;;12.00;99.90;;;;;;5132296;27;20216;-66
2023/05/26 02:22:56;;;;;;;14.27;7.93;;;12.00;99.90;;;;;;5132402;27;20185;-66
2023/05/26 02:25:21;;;;;;;13.70;7.60;;;11.90;99.90;;;;;;5132398;27;20188;-65
2023/05/26 02:27:47;;;;;;;11.17;7.87;;;11.90;99.90;;;;;;5132252;27;20769;-66
2023/05/26 02:30:13;;;;;;;9.90;7.50;;;11.90;99.90;;;;;;5132357;27;20264;-67
2023/05/26 02:32:38;;;;;;;12.47;7.97;;;11.90;99.90;;;;;;5113601;27;20233;-66
2023/05/26 02:35:04;;;;;;;12.03;8.03;;;11.90;99.90;;;;;;5132302;27;20214;-65
2023/05/26 02:37:30;;;;;;;13.97;8.30;;;11.90;99.90;;;;;;5131956;27;20243;-65
2023/05/26 02:39:56;;;;;;;11.67;7.90;;;11.90;99.90;;;;;;5133150;27;20460;-64
2023/05/26 02:42:22;;;;;;;15.80;9.87;;;11.90;99.90;;;;;;5132809;27;20854;-65
2023/05/26 02:44:47;;;;;;;19.73;8.80;;;12.00;99.90;;;;;;5132787;27;20493;-65
2023/05/26 02:47:13;;;;;;;14.23;9.20;;;12.00;99.90;;;;;;5132713;27;20597;-65
2023/05/26 02:49:40;;;;;;;14.60;9.40;;;12.00;99.90;;;;;;5132658;27;20543;-64
2023/05/26 02:52:06;;;;;;;14.57;8.37;;;12.10;99.90;;;;;;5132668;27;20195;-65
2023/05/26 02:54:31;;;;;;;14.20;10.30;;;12.00;99.90;;;;;;5132518;27;20859;-65
2023/05/26 02:56:57;;;;;;;12.47;8.67;;;12.00;99.90;;;;;;5132158;27;20221;-65
2023/05/26 02:59:22;;;;;;;12.03;7.90;;;11.90;99.90;;;;;;5131996;27;20215;-65
2023/05/26 03:01:48;;;;;;;11.10;7.83;;;11.80;99.90;;;;;;5132000;27;20211;-65
2023/05/26 03:04:13;;;;;;;12.40;8.47;;;11.80;99.90;;;;;;5131834;27;20281;-67
2023/05/26 03:06:41;;;;;;;15.37;9.30;;;11.90;99.90;;;;;;5131989;27;20216;-66
2023/05/26 03:09:07;;;;;;;17.27;9.17;;;11.80;99.90;;;;;;5131627;27;20181;-66
2023/05/26 03:11:33;;;;;;;15.57;8.60;;;11.70;99.90;;;;;;5131404;27;20429;-66
2023/05/26 03:14:00;;;;;;;14.50;8.73;;;11.80;99.90;;;;;;5131433;27;20439;-66
2023/05/26 03:16:25;;;;;;;14.50;8.53;;;11.80;99.90;;;;;;5131445;27;20432;-69
2023/05/26 03:18:51;;;;;;;13.30;9.10;;;11.80;99.90;;;;;;5131626;27;20774;-66
2023/05/26 03:21:18;;;;;;;10.97;8.30;;;11.90;99.90;;;;;;5131649;27;20300;-66
2023/05/26 03:23:43;;;;;;;12.43;8.53;;;11.90;99.90;;;;;;5131649;27;20177;-66
2023/05/26 03:26:10;;;;;;;13.43;8.80;;;11.80;99.90;;;;;;5131624;27;20421;-66
2023/05/26 03:28:36;;;;;;;16.20;7.93;;;11.90;99.90;;;;;;5131751;27;20169;-66
2023/05/26 03:31:02;;;;;;;14.53;8.60;;;11.90;99.90;;;;;;5131873;27;20982;-66
2023/05/26 03:33:28;;;;;;;13.43;8.40;;;11.80;99.90;;;;;;5131738;27;20175;-65
2023/05/26 03:35:54;;;;;;;12.47;8.07;;;11.80;99.90;;;;;;5131838;27;20267;-66
2023/05/26 03:38:20;;;;;;;13.20;9.13;;;11.80;99.90;;;;;;5131700;27;20514;-66
2023/05/26 03:40:46;;;;;;;19.87;10.60;;;11.80;99.90;;;;;;5131567;27;20240;-66
2023/05/26 03:43:11;;;;;;;14.27;10.03;;;11.80;99.90;;;;;;5131407;27;20735;-67
2023/05/26 03:45:37;;;;;;;18.70;10.50;;;11.70;99.90;;;;;;5131346;27;20557;-66
2023/05/26 03:48:03;;;;;;;20.40;10.77;;;11.70;99.90;;;;;;5131259;27;20264;-66
2023/05/26 03:50:28;;;;;;;22.63;9.60;;;11.60;99.90;;;;;;5131049;27;20207;-66
2023/05/26 03:52:54;;;;;;;17.03;9.37;;;11.60;99.90;;;;;;5130884;27;20206;-65
2023/05/26 03:55:20;;;;;;;16.43;9.90;;;11.70;99.90;;;;;;5130814;27;20187;-66
2023/05/26 03:57:45;;;;;;;14.43;9.00;;;11.60;99.90;;;;;;5130672;27;20207;-66
2023/05/26 04:00:11;;;;;;;12.70;9.37;;;11.60;99.90;;;;;;5130754;27;20737;-67
2023/05/26 04:02:37;;;;;;;11.70;8.47;;;11.40;99.90;;;;;;5130545;27;20203;-67
2023/05/26 04:05:03;;;;;;;16.77;10.00;;;11.50;99.90;;;;;;5130391;27;20409;-66
2023/05/26 04:07:29;;;;;;;14.27;8.80;;;11.40;99.90;;;;;;5130266;27;20239;-66
2023/05/26 04:09:54;;;;;;;16.90;9.30;;;11.40;99.90;;;;;;5130484;27;20195;-66
2023/05/26 04:12:20;;;;;;;14.20;10.53;;;11.30;99.90;;;;;;5130215;27;20423;-65
2023/05/26 04:14:46;;;;;;;16.13;10.53;;;11.30;99.90;;;;;;5130316;27;20187;-65
2023/05/26 04:17:11;;;;;;;13.40;9.30;;;11.30;99.90;;;;;;5130053;27;20697;-65
2023/05/26 04:19:37;;;;;;;17.93;10.30;;;11.30;99.90;;;;;;5129995;27;20526;-66
2023/05/26 04:22:03;;;;;;;15.63;10.27;;;11.40;99.90;;;;;;5129326;27;20174;-65
2023/05/26 04:24:28;;;;;;;15.83;8.63;;;11.40;99.90;;;;;;5128588;27;20646;-65
2023/05/26 04:26:54;;;;;;;15.20;9.00;;;11.50;99.90;;;;;;5128234;27;20202;-66
2023/05/26 04:29:20;;;;;;;15.73;9.83;;;11.50;99.90;;;;;;5128236;27;20556;-66
2023/05/26 04:31:46;;;;;;;14.93;9.20;;;11.50;99.90;;;;;;5128238;27;20577;-66
2023/05/26 04:34:12;;;;;;;16.33;10.23;;;11.50;99.90;;;;;;5128273;27;20925;-66
2023/05/26 04:36:40;;;;;;;14.00;8.70;;;11.60;99.90;;;;;;5128556;27;20480;-66
2023/05/26 04:39:06;;;;;;;14.13;9.77;;;11.70;99.90;;;;;;5128132;27;20645;-66
2023/05/26 04:41:35;;;;;;;14.17;11.07;;;11.80;99.90;;;;;;5127950;27;20942;-66
2023/05/26 04:44:01;;;;;;;13.77;9.60;;;11.90;99.90;;;;;;5127965;27;20832;-65
2023/05/26 04:46:28;;;;;;;16.33;10.50;;;12.00;99.90;;;;;;5127963;27;20437;-65
2023/05/26 04:48:56;;;;;;;15.07;9.83;;;11.90;99.90;;;;;;5128040;27;20622;-65
2023/05/26 04:51:22;;;;;;;12.60;9.00;;;12.10;99.90;;;;;;5128448;27;20416;-65
2023/05/26 04:53:48;;;;;;;14.40;9.30;;;12.00;99.90;;;;;;5109031;27;20512;-66
2023/05/26 04:56:14;;;;;;;13.70;8.07;;;12.10;99.90;;;;;;5127875;27;20512;-66
2023/05/26 04:58:40;;;;;;;14.83;9.47;;;12.20;99.90;;;;;;5109143;28;20425;-66
2023/05/26 05:01:05;;;;;;;15.23;8.93;;;12.30;99.90;;;;;;5127154;27;21012;-66
2023/05/26 05:03:34;;;;;;;14.03;8.70;;;12.30;99.90;;;;;;5127805;27;20191;-66
2023/05/26 05:06:00;;;;;;;12.23;9.33;;;12.40;99.90;;;;;;5127887;28;20195;-66
2023/05/26 05:08:25;;;;;;;13.13;9.63;;;12.50;99.90;;;;;;5127668;27;20456;-67
2023/05/26 05:10:51;;;;;;;16.23;9.10;;;12.50;99.90;;;;;;5127742;28;20791;-66
2023/05/26 05:13:17;;;;;;;13.90;9.90;;;12.50;99.90;;;;;;5127873;28;20189;-66
2023/05/26 05:15:43;;;;;;;16.03;9.40;;;12.70;99.90;;;;;;5127589;28;20177;-66
2023/05/26 05:18:08;;;;;;;19.20;9.47;;;12.80;99.90;;;;;;5127553;27;20452;-66
2023/05/26 05:20:34;;;;;;;14.40;8.83;;;12.90;99.90;;;;;;5127842;28;20204;-66
2023/05/26 05:23:00;;;;;;;17.70;10.13;;;13.00;99.90;;;;;;5127610;28;20184;-65
2023/05/26 05:25:26;;;;;;;16.50;9.57;;;13.10;99.90;;;;;;5127605;28;20417;-67
2023/05/26 05:27:51;;;;;;;13.33;9.90;;;13.20;99.90;;;;;;5108874;28;20256;-66
2023/05/26 05:30:18;;;;;;;13.67;10.13;;;13.30;99.90;;;;;;5127491;28;20181;-67
2023/05/26 05:32:44;;;;;;;12.60;10.13;;;13.50;99.90;;;;;;5127876;27;20185;-66
2023/05/26 05:35:10;;;;;;;18.23;9.37;;;13.50;99.90;;;;;;5127377;27;20441;-67
2023/05/26 05:37:36;;;;;;;14.33;9.97;;;13.60;99.90;;;;;;5127564;27;20257;-67
2023/05/26 05:40:03;;;;;;;16.33;9.23;;;13.70;99.90;;;;;;5127293;28;20473;-65
2023/05/26 05:42:28;;;;;;;16.27;9.50;;;13.70;99.90;;;;;;5127254;28;20817;-67
2023/05/26 05:44:54;;;;;;;22.13;10.67;;;13.80;99.90;;;;;;5127301;28;20411;-67
2023/05/26 05:47:19;;;;;;;19.73;12.23;;;13.90;99.90;;;;;;5127263;27;20200;-67
2023/05/26 05:49:45;;;;;;;16.97;11.47;;;14.00;99.90;;;;;;5108687;28;20260;-66
2023/05/26 05:52:10;;;;;;;16.03;9.90;;;14.10;99.90;;;;;;5127472;28;20570;-67
2023/05/26 05:54:37;;;;;;;17.57;10.77;;;14.20;99.90;;;;;;5127444;28;20196;-66
2023/05/26 05:57:03;;;;;;;19.57;10.40;;;14.30;99.90;;;;;;5127211;27;20276;-67
2023/05/26 05:59:28;;;;;;;18.57;10.50;;;14.40;99.90;;;;;;5127289;28;20874;-67
2023/05/26 06:01:54;;;;;;;14.60;10.50;;;14.50;99.90;;;;;;5127207;28;20266;-67
2023/05/26 06:04:20;;;;;;;17.60;10.53;;;14.50;99.90;;;;;;5127255;28;20180;-66
2023/05/26 06:06:45;;;;;;;14.20;10.40;;;14.60;99.90;;;;;;5127063;27;20201;-65
2023/05/26 06:09:11;;;;;;;16.93;10.50;;;14.70;99.90;;;;;;5127181;28;20663;-66
2023/05/26 06:11:37;;;;;;;17.03;10.87;;;14.80;99.90;;;;;;5127108;27;20178;-67
2023/05/26 06:14:03;;;;;;;16.57;10.57;;;14.90;99.90;;;;;;5112446;27;20422;-64
2023/05/26 06:16:28;;;;;;;16.33;11.00;;;14.90;99.90;;;;;;5130908;27;20465;-66
2023/05/26 06:18:54;;;;;;;19.60;10.83;;;15.10;99.90;;;;;;5131525;27;21108;-66
2023/05/26 06:21:19;;;;;;;25.53;10.27;;;15.10;99.90;;;;;;5130956;27;20217;-67
2023/05/26 06:23:45;;;;;;;18.80;9.60;;;15.20;99.90;;;;;;5130821;27;20264;-67
2023/05/26 06:26:11;;;;;;;18.57;9.73;;;15.30;99.90;;;;;;5130748;27;20341;-66
2023/05/26 06:28:36;;;;;;;13.70;9.37;;;15.40;99.90;;;;;;5130953;27;20188;-64
2023/05/26 06:31:02;;;;;;;15.30;10.03;;;15.50;99.90;;;;;;5130757;27;20181;-66
2023/05/26 06:33:28;;;;;;;14.90;10.20;;;15.50;99.90;;;;;;5130895;27;20193;-66
2023/05/26 06:35:53;;;;;;;16.40;10.30;;;15.70;99.90;;;;;;5130737;27;20630;-66
2023/05/26 06:38:19;;;;;;;15.00;10.23;;;15.70;99.90;;;;;;5130900;27;20197;-66
2023/05/26 06:40:44;;;;;;;22.23;11.33;;;15.80;99.90;;;;;;5130713;27;20769;-67
2023/05/26 06:43:10;;;;;;;20.30;9.73;;;15.80;99.90;;;;;;5130722;27;20189;-66
2023/05/26 06:45:35;;;;;;;12.60;10.00;;;15.90;99.90;;;;;;5130950;27;20652;-65
2023/05/26 06:48:01;;;;;;;15.00;10.63;;;15.90;99.90;;;;;;5130813;27;20212;-67
2023/05/26 06:50:26;;;;;;;25.10;10.40;;;16.00;99.90;;;;;;5130786;27;20182;-67
2023/05/26 06:52:52;;;;;;;16.83;10.50;;;16.00;99.90;;;;;;5130709;27;20198;-66
2023/05/26 06:55:19;;;;;;;15.60;10.43;;;16.10;99.90;;;;;;5131055;27;20192;-66
2023/05/26 06:57:45;;;;;;;21.07;11.70;;;16.10;99.90;;;;;;5130987;27;20230;-66
2023/05/26 07:00:11;;;;;;;21.50;11.40;;;16.20;99.90;;;;;;5131318;27;20955;-66
2023/05/26 07:02:38;;;;;;;16.77;10.63;;;16.30;99.90;;;;;;5131144;27;20426;-66
2023/05/26 07:05:04;;;;;;;14.40;10.47;;;16.40;99.90;;;;;;5131352;27;20439;-66
2023/05/26 07:07:29;;;;;;;20.33;10.90;;;16.40;99.90;;;;;;5130795;27;20466;-65
2023/05/26 07:09:55;;;;;;;20.33;11.70;;;16.40;99.90;;;;;;5131053;27;20269;-67
2023/05/26 07:12:21;;;;;;;13.23;10.07;;;16.40;99.90;;;;;;5131315;27;20891;-66
2023/05/26 07:14:47;;;;;;;15.40;10.13;;;16.50;99.90;;;;;;5130938;27;20177;-65
2023/05/26 07:17:13;;;;;;;18.03;11.40;;;16.60;99.90;;;;;;5130974;27;20200;-65
2023/05/26 07:19:39;;;;;;;15.83;10.17;;;16.50;99.90;;;;;;5130869;27;20184;-65
2023/05/26 07:22:04;;;;;;;18.13;11.97;;;16.60;99.90;;;;;;5130596;27;20860;-66
2023/05/26 07:24:30;;;;;;;17.27;10.73;;;16.70;99.90;;;;;;5130277;27;20183;-66
2023/05/26 07:26:56;;;;;;;19.37;11.80;;;16.80;99.90;;;;;;5111995;27;21030;-66
2023/05/26 07:29:21;;;;;;;18.63;10.20;;;16.70;99.90;;;;;;5130681;27;20173;-65
2023/05/26 07:31:47;;;;;;;18.90;11.20;;;16.80;99.90;;;;;;5130503;27;20197;-66
2023/05/26 07:34:13;;;;;;;15.93;10.07;;;16.80;99.90;;;;;;5130468;27;20180;-66
2023/05/26 07:36:38;;;;;;;19.00;11.53;;;16.80;99.90;;;;;;5130207;27;20248;-66
2023/05/26 07:39:04;;;;;;;12.90;9.13;;;16.80;99.90;;;;;;5130261;27;20545;-66
2023/05/26 07:41:30;;;;;;;18.70;10.50;;;16.80;99.90;;;;;;5130113;27;20213;-66
2023/05/26 07:43:56;;;;;;;18.63;10.83;;;16.80;99.90;;;;;;5112087;27;20803;-66
2023/05/26 07:46:22;;;;;;;15.83;10.20;;;16.70;99.90;;;;;;5130190;27;20423;-67
2023/05/26 07:48:48;;;;;;;18.67;10.43;;;17.00;99.90;;;;;;5130154;27;20175;-67
2023/05/26 07:51:14;;;;;;;14.93;9.87;;;17.00;99.90;;;;;;5130069;27;20249;-67
2023/05/26 07:53:40;;;;;;;13.43;9.40;;;17.00;99.90;;;;;;5129882;27;20446;-67
2023/05/26 07:56:06;;;;;;;16.60;9.80;;;16.90;99.90;;;;;;5130082;27;20443;-66
2023/05/26 07:58:32;;;;;;;16.60;10.33;;;17.00;99.90;;;;;;5130182;27;20179;-66
2023/05/26 08:00:57;;;;;;;16.77;11.10;;;17.10;99.90;;;;;;5130014;27;20648;-71
2023/05/26 08:03:23;;;;;;;13.23;10.30;;;17.20;99.90;;;;;;5130309;27;20175;-66
2023/05/26 08:05:49;;;;;;;16.93;10.10;;;17.30;99.90;;;;;;5130028;27;20227;-67
2023/05/26 08:08:14;;;;;;;12.37;8.73;;;17.40;99.90;;;;;;5130167;27;20195;-66
2023/05/26 08:10:40;;;;;;;11.07;8.50;;;17.50;99.90;;;;;;5130378;27;20234;-66
2023/05/26 08:13:06;;;;;;;18.03;9.90;;;17.70;99.90;;;;;;5130576;27;20198;-66
2023/05/26 08:15:31;;;;;;;15.00;9.80;;;17.70;99.90;;;;;;5130461;27;20199;-72
2023/05/26 08:17:57;;;;;;;19.03;10.80;;;17.60;99.90;;;;;;5111750;27;20280;-67
2023/05/26 08:20:23;;;;;;;17.57;10.30;;;17.70;99.90;;;;;;5130067;27;20284;-66
2023/05/26 08:22:48;;;;;;;14.73;10.30;;;17.80;99.90;;;;;;5130517;27;20537;-67
2023/05/26 08:25:14;;;;;;;17.03;9.87;;;18.00;99.90;;;;;;5111601;27;20224;-66
2023/05/26 08:27:40;;;;;;;20.57;9.80;;;18.10;99.90;;;;;;5129691;27;20197;-66
2023/05/26 08:30:07;;;;;;;19.83;9.90;;;18.30;99.90;;;;;;5129603;27;20688;-66
2023/05/26 08:32:34;;;;;;;14.53;9.63;;;18.50;99.90;;;;;;5129522;27;20451;-66
2023/05/26 08:34:59;;;;;;;18.07;9.20;;;18.60;99.90;;;;;;5128993;27;20410;-66
2023/05/26 08:37:25;;;;;;;13.77;9.80;;;18.80;99.90;;;;;;5128668;27;20438;-66
2023/05/26 08:39:51;;;;;;;14.57;9.20;;;18.90;99.90;;;;;;5110813;27;20184;-67
2023/05/26 08:42:21;;;;;;;12.80;10.60;;;19.00;99.90;;;;;;5128978;27;20218;-67
2023/05/26 08:44:46;;;;;;;13.60;9.43;;;19.10;99.90;;;;;;5128966;27;20791;-66
2023/05/26 08:47:13;;;;;;;13.67;9.10;;;19.30;99.90;;;;;;5128770;27;20466;-67
2023/05/26 08:49:49;;;;;;;14.13;9.07;;;19.30;99.90;;;;;;5110565;27;20182;-67
2023/05/26 08:52:16;;;;;;;12.87;9.53;;;19.60;99.90;;;;;;5128832;27;20421;-67
2023/05/26 08:54:43;;;;;;;14.17;9.17;;;19.80;99.90;;;;;;5128656;27;21038;-67
2023/05/26 08:57:11;;;;;;;11.67;8.90;;;19.90;99.90;;;;;;5109908;27;20523;-66
2023/05/26 08:59:40;;;;;;;14.30;9.03;;;20.00;99.90;;;;;;5128694;27;20494;-67
2023/05/26 09:02:06;;;;;;;17.27;9.13;;;20.40;99.90;;;;;;5128454;27;20492;-67
2023/05/26 09:04:32;;;;;;;13.23;8.73;;;20.50;99.90;;;;;;5110110;28;20407;-67
2023/05/26 09:06:58;;;;;;;19.20;9.30;;;20.80;99.90;;;;;;5110060;28;20491;-67
2023/05/26 09:09:24;;;;;;;13.47;8.30;;;20.90;99.90;;;;;;5128521;28;20710;-68
2023/05/26 09:11:51;;;;;;;14.00;8.83;;;21.10;99.90;;;;;;5128443;27;20498;-67
2023/05/26 09:14:19;;;;;;;14.37;9.20;;;21.50;99.90;;;;;;5128366;28;20213;-67
2023/05/26 09:16:45;;;;;;;17.60;9.23;;;21.60;99.90;;;;;;5128303;27;21018;-67
2023/05/26 09:19:18;;;;;;;12.77;8.77;;;21.70;99.90;;;;;;5128015;28;20415;-67
2023/05/26 09:21:48;;;;;;;21.13;8.80;;;21.80;99.90;;;;;;5109554;28;20223;-67
2023/05/26 09:24:20;;;;;;;14.20;8.73;;;22.00;99.90;;;;;;5127723;28;21080;-67
2023/05/26 09:26:47;;;;;;;17.97;9.40;;;22.20;99.90;;;;;;5108869;28;21004;-67
2023/05/26 09:29:14;;;;;;;22.97;10.47;;;22.40;99.90;;;;;;5127636;28;20438;-66
2023/05/26 09:31:47;;;;;;;11.83;8.70;;;22.60;99.90;;;;;;5127657;28;20415;-67
2023/05/26 09:34:16;;;;;;;20.13;9.00;;;22.60;99.90;;;;;;5127718;28;20414;-67
2023/05/26 09:36:43;;;;;;;14.37;8.57;;;22.70;99.90;;;;;;5127495;27;20443;-67
2023/05/26 09:39:11;;;;;;;15.57;8.90;;;23.00;99.90;;;;;;5127483;28;20844;-67
2023/05/26 09:41:44;;;;;;;9.77;7.83;;;23.20;99.90;;;;;;5127273;28;20470;-67
2023/05/26 09:44:15;;;;;;;14.00;8.50;;;23.40;99.50;;;;;;5109236;27;20525;-67
2023/05/26 09:46:42;;;;;;;16.60;8.17;;;23.50;98.70;;;;;;5127459;27;20438;-67
2023/05/26 09:49:13;;;;;;;21.03;8.30;;;23.70;99.90;;;;;;5131365;27;20417;-67
2023/05/26 09:51:41;;;;;;;12.70;7.80;;;23.90;99.30;;;;;;5131402;27;20464;-67
2023/05/26 09:54:09;;;;;;;16.17;8.30;;;23.90;97.70;;;;;;5131645;27;20521;-77
2023/05/26 09:56:36;;;;;;;12.83;7.33;;;24.10;97.80;;;;;;5096081;27;20448;-77
2023/05/26 09:59:06;;;;;;;14.67;7.73;;;24.40;98.40;;;;;;5112920;27;20431;-77
2023/05/26 10:01:37;;;;;;;11.27;6.60;;;24.70;97.20;;;;;;5113324;27;21023;-77
2023/05/26 10:04:06;;;;;;;14.10;7.97;;;24.70;96.80;;;;;;5131307;27;20443;-77
2023/05/26 10:06:35;;;;;;;19.50;9.03;;;24.50;95.10;;;;;;5112608;27;20452;-76
2023/05/26 10:09:03;;;;;;;10.60;7.17;;;24.60;95.80;;;;;;5131130;27;21026;-76
2023/05/26 10:11:33;;;;;;;16.73;6.83;;;24.70;95.80;;;;;;5112658;27;20424;-77
2023/05/26 10:14:00;;;;;;;12.50;7.67;;;24.80;95.50;;;;;;5131204;27;20420;-76
2023/05/26 10:16:26;;;;;;;11.57;7.07;;;24.90;95.80;;;;;;5131050;27;20494;-77
2023/05/26 10:18:52;;;;;;;12.80;7.10;;;25.00;95.60;;;;;;5130996;27;20432;-76
2023/05/26 10:21:23;;;;;;;12.20;7.10;;;25.00;94.60;;;;;;5112645;27;20468;-77
2023/05/26 10:24:12;;;;;;;11.40;7.30;;;25.00;94.80;;;;;;5131671;27;20809;-77
2023/05/26 10:26:44;;;;;;;10.83;6.90;;;25.00;94.90;;;;;;5131000;27;20429;-77
2023/05/26 10:29:14;;;;;;;12.57;8.13;;;25.10;95.20;;;;;;5130896;27;20950;-77
2023/05/26 10:31:40;;;;;;;15.70;7.77;;;25.20;94.10;;;;;;5130705;27;20423;-77
2023/05/26 10:34:14;;;;;;;11.90;7.90;;;25.50;94.70;;;;;;5095250;27;20884;-76
2023/05/26 10:36:41;;;;;;;11.97;7.73;;;25.70;94.60;;;;;;5112554;27;20204;-76
2023/05/26 10:39:11;;;;;;;13.27;7.63;;;25.70;94.80;;;;;;5112558;27;20478;-76
2023/05/26 10:41:49;;;;;;;12.03;7.43;;;25.70;93.60;;;;;;5131019;27;20538;-76
2023/05/26 10:44:40;;;;;;;14.50;7.50;;;25.80;94.20;;;;;;5131394;27;20446;-77
2023/05/26 10:47:06;;;;;;;16.23;8.80;;;25.90;92.80;;;;;;5130943;27;20518;-75
2023/05/26 10:49:36;;;;;;;12.77;8.10;;;25.70;93.90;;;;;;5131361;27;20444;-76
2023/05/26 10:52:13;;;;;;;10.83;7.30;;;25.80;93.20;;;;;;5112967;27;20419;-76
2023/05/26 10:54:40;;;;;;;15.83;7.30;;;26.00;93.40;;;;;;5095536;27;20426;-76
2023/05/26 10:57:26;;;;;;;12.40;7.50;;;26.00;93.10;;;;;;5130687;27;21067;-76
2023/05/26 10:59:53;;;;;;;17.17;7.80;;;25.90;93.20;;;;;;5130099;27;20417;-76
2023/05/26 11:02:21;;;;;;;11.17;7.20;;;26.10;93.50;;;;;;5131182;27;20411;-76
2023/05/26 11:04:48;;;;;;;11.00;7.20;;;26.10;92.90;;;;;;5095411;27;20784;-77
2023/05/26 11:07:26;;;;;;;11.47;7.43;;;26.00;92.60;;;;;;5112209;27;20435;-77
2023/05/26 11:10:10;;;;;;;10.60;7.77;;;26.00;93.10;;;;;;5130903;27;20410;-77
2023/05/26 11:12:57;;;;;;;11.23;7.40;;;26.10;93.20;;;;;;5112649;27;20756;-77
2023/05/26 11:15:26;;;;;;;9.47;6.50;;;26.10;92.80;;;;;;5130718;27;20406;-77
2023/05/26 11:17:57;;;;;;;16.03;7.77;;;26.30;92.80;;;;;;5131277;27;20427;-77
2023/05/26 11:20:23;;;;;;;13.93;7.10;;;26.30;92.10;;;;;;5134460;27;20472;-77
2023/05/26 11:22:52;;;;;;;12.00;6.50;;;26.40;92.80;;;;;;5132096;27;20433;-77
2023/05/26 11:25:17;;;;;;;14.60;7.23;;;26.50;92.90;;;;;;5131845;27;20411;-77
2023/05/26 11:27:50;;;;;;;14.60;7.73;;;26.50;92.60;;;;;;5132278;27;20456;-78
2023/05/26 11:30:18;;;;;;;10.87;7.77;;;26.80;92.10;;;;;;5114988;27;20196;-77
2023/05/26 11:32:48;;;;;;;15.27;7.37;;;26.80;91.60;;;;;;5132175;27;20410;-78
2023/05/26 11:35:27;;;;;;;8.60;6.37;;;26.90;90.80;;;;;;5131991;27;20415;-77
2023/05/26 11:37:54;;;;;;;15.27;7.03;;;26.90;88.60;;;;;;5130891;27;20442;-77
2023/05/26 11:40:20;;;;;;;14.73;7.83;;;27.00;88.60;;;;;;5112728;27;20574;-78
2023/05/26 11:42:51;;;;;;;14.23;6.50;;;26.80;90.70;;;;;;5130291;27;20492;-77
2023/05/26 11:45:16;;;;;;;10.73;6.90;;;26.80;91.90;;;;;;5130431;27;20414;-77
2023/05/26 11:47:42;;;;;;;11.43;6.70;;;26.80;90.30;;;;;;5130523;27;20819;-76
2023/05/26 11:50:09;;;;;;;16.70;7.83;;;26.70;90.40;;;;;;5112118;27;20181;-77
2023/05/26 11:52:41;;;;;;;19.63;6.93;;;26.80;90.50;;;;;;5112146;27;20185;-77
2023/05/26 11:55:10;;;;;;;10.13;6.27;;;26.90;91.00;;;;;;5129949;27;20414;-77
2023/05/26 11:57:36;;;;;;;13.63;6.40;;;27.10;89.10;;;;;;5111542;27;20442;-76
2023/05/26 12:00:09;;;;;;;11.90;7.00;;;26.90;90.70;;;;;;5130837;27;20464;-76
2023/05/26 12:02:35;;;;;;;12.87;6.83;;;26.30;90.70;;;;;;5129967;27;20411;-77
2023/05/26 12:05:19;;;;;;;13.73;6.93;;;26.50;91.50;;;;;;5130300;27;20434;-77
2023/05/26 12:07:59;;;;;;;8.13;6.37;;;26.60;90.70;;;;;;5129681;27;20514;-76
2023/05/26 12:10:30;;;;;;;8.80;6.20;;;26.70;90.90;;;;;;5129443;27;20411;-76
2023/05/26 12:12:55;;;;;;;12.30;6.33;;;27.00;90.10;;;;;;5112028;27;20882;-77
2023/05/26 12:15:21;;;;;;;14.00;7.17;;;27.30;90.80;;;;;;5114261;27;20450;-78
2023/05/26 12:17:47;;;;;;;13.03;6.53;;;27.10;90.50;;;;;;5130329;27;20197;-78
2023/05/26 12:20:24;;;;;;;13.13;6.07;;;27.10;90.60;;;;;;5094613;27;20205;-78
2023/05/26 12:22:50;;;;;;;6.27;5.60;;;27.70;90.70;;;;;;5130357;27;20410;-76
2023/05/26 12:25:25;;;;;;;8.97;6.17;;;27.40;87.60;;;;;;5130299;27;20426;-78
2023/05/26 12:27:51;;;;;;;10.50;6.40;;;27.10;86.00;;;;;;5129696;27;20932;-78
2023/05/26 12:30:18;;;;;;;8.37;6.23;;;26.70;87.80;;;;;;5111626;27;20433;-77
2023/05/26 12:32:45;;;;;;;12.90;6.67;;;26.40;87.00;;;;;;5130383;27;20826;-77
2023/05/26 12:35:11;;;;;;;9.67;6.57;;;26.10;88.70;;;;;;5095410;27;20962;-77
2023/05/26 12:37:37;;;;;;;13.37;6.20;;;25.80;90.20;;;;;;5130183;27;20450;-77